sensor_id;sensor_type;location;lat;lon;timestamp;temperature;humidity
52709;DHT22;38606;52.986;6.980;2023-04-01T00:00:19;10.40;99.90
52709;DHT22;38606;52.986;6.980;2023-04-01T00:02:45;12.10;99.90
52709;DHT22;38606;52.986;6.980;2023-04-01T00:05:12;10.40;99.90
52709;DHT22;38606;52.986;6.980;2023-04-01T00:07:38;10.50;99.90
52709;DHT22;38606;52.986;6.980;2023-04-01T00:10:06;10.40;99.90
52709;DHT22;38606;52.986;6.980;2023-04-01T00:12:32;10.30;99.90
52709;DHT22;38606;52.986;6.980;2023-04-01T00:14:58;10.40;99.90
52709;DHT22;38606;52.986;6.980;2023-04-01T00:17:24;10.50;99.90
52709;DHT22;38606;52.986;6.980;2023-04-01T00:19:50;10.40;99.90
52709;DHT22;38606;52.986;6.980;2023-04-01T00:22:16;10.60;99.90
52709;DHT22;38606;52.986;6.980;2023-04-01T00:24:42;10.60;99.90
52709;DHT22;38606;52.986;6.980;2023-04-01T00:27:07;10.50;99.90
52709;DHT22;38606;52.986;6.980;2023-04-01T00:29:34;10.30;99.90
52709;DHT22;38606;52.986;6.980;2023-04-01T00:32:00;10.20;99.90
52709;DHT22;38606;52.986;6.980;2023-04-01T00:34:26;10.50;99.90
52709;DHT22;38606;52.986;6.980;2023-04-01T00:36:52;10.40;99.90
52709;DHT22;38606;52.986;6.980;2023-04-01T00:39:20;10.50;99.90
52709;DHT22;38606;52.986;6.980;2023-04-01T00:41:46;10.40;99.90
52709;DHT22;38606;52.986;6.980;2023-04-01T00:44:24;10.60;99.90
52709;DHT22;38606;52.986;6.980;2023-04-01T00:46:49;10.20;99.90
52709;DHT22;38606;52.986;6.980;2023-04-01T00:49:17;10.30;99.90
52709;DHT22;38606;52.986;6.980;2023-04-01T00:51:45;10.20;99.90
52709;DHT22;38606;52.986;6.980;2023-04-01T00:54:14;10.30;99.90
52709;DHT22;38606;52.986;6.980;2023-04-01T00:56:45;10.70;99.90
52709;DHT22;38606;52.986;6.980;2023-04-01T00:59:16;10.40;99.90
52709;DHT22;38606;52.986;6.980;2023-04-01T01:01:44;10.20;99.90
52709;DHT22;38606;52.986;6.980;2023-04-01T01:04:31;10.30;99.90
52709;DHT22;38606;52.986;6.980;2023-04-01T01:09:40;10.30;99.90
52709;DHT22;38606;52.986;6.980;2023-04-01T01:37:19;10.30;99.90
52709;DHT22;38606;52.986;6.980;2023-04-01T01:39:52;10.10;99.90
52709;DHT22;38606;52.986;6.980;2023-04-01T01:42:19;9.90;99.90
52709;DHT22;38606;52.986;6.980;2023-04-01T01:44:47;10.10;99.90
52709;DHT22;38606;52.986;6.980;2023-04-01T01:47:15;10.10;99.90
52709;DHT22;38606;52.986;6.980;2023-04-01T01:49:43;10.10;99.90
52709;DHT22;38606;52.986;6.980;2023-04-01T01:52:11;10.20;99.90
52709;DHT22;38606;52.986;6.980;2023-04-01T01:54:46;10.20;99.90
52709;DHT22;38606;52.986;6.980;2023-04-01T01:57:12;10.20;99.90
52709;DHT22;38606;52.986;6.980;2023-04-01T01:59:38;10.20;99.90
52709;DHT22;38606;52.986;6.980;2023-04-01T02:02:06;10.10;99.90
52709;DHT22;38606;52.986;6.980;2023-04-01T02:04:39;10.10;99.90
52709;DHT22;38606;52.986;6.980;2023-04-01T02:07:13;9.90;99.90
52709;DHT22;38606;52.986;6.980;2023-04-01T02:09:40;10.30;99.90
52709;DHT22;38606;52.986;6.980;2023-04-01T02:12:08;10.10;99.90
52709;DHT22;38606;52.986;6.980;2023-04-01T02:14:43;10.20;99.90
52709;DHT22;38606;52.986;6.980;2023-04-01T02:17:14;10.20;99.90
52709;DHT22;38606;52.986;6.980;2023-04-01T02:19:52;10.10;99.90
52709;DHT22;38606;52.986;6.980;2023-04-01T02:22:25;10.20;99.90
52709;DHT22;38606;52.986;6.980;2023-04-01T02:24:54;10.10;99.90
52709;DHT22;38606;52.986;6.980;2023-04-01T02:27:22;10.10;99.90
52709;DHT22;38606;52.986;6.980;2023-04-01T02:29:49;9.40;99.90
52709;DHT22;38606;52.986;6.980;2023-04-01T02:32:16;10.40;99.90
52709;DHT22;38606;52.986;6.980;2023-04-01T02:34:43;10.20;99.90
52709;DHT22;38606;52.986;6.980;2023-04-01T02:37:10;10.20;99.90
52709;DHT22;38606;52.986;6.980;2023-04-01T02:39:36;10.20;99.90
52709;DHT22;38606;52.986;6.980;2023-04-01T02:42:02;10.10;99.90
52709;DHT22;38606;52.986;6.980;2023-04-01T02:44:28;10.00;99.90
52709;DHT22;38606;52.986;6.980;2023-04-01T02:46:54;9.90;99.90
52709;DHT22;38606;52.986;6.980;2023-04-01T02:49:19;9.90;99.90
52709;DHT22;38606;52.986;6.980;2023-04-01T02:51:45;10.20;99.90
52709;DHT22;38606;52.986;6.980;2023-04-01T02:54:11;10.00;99.90
52709;DHT22;38606;52.986;6.980;2023-04-01T02:56:37;10.10;99.90
52709;DHT22;38606;52.986;6.980;2023-04-01T02:59:03;9.90;99.90
52709;DHT22;38606;52.986;6.980;2023-04-01T03:01:28;10.20;99.90
52709;DHT22;38606;52.986;6.980;2023-04-01T03:03:54;9.90;99.90
52709;DHT22;38606;52.986;6.980;2023-04-01T03:06:20;10.30;99.90
52709;DHT22;38606;52.986;6.980;2023-04-01T03:08:46;10.10;99.90
52709;DHT22;38606;52.986;6.980;2023-04-01T03:11:12;9.90;99.90
52709;DHT22;38606;52.986;6.980;2023-04-01T03:13:38;10.00;99.90
52709;DHT22;38606;52.986;6.980;2023-04-01T03:16:04;10.00;99.90
52709;DHT22;38606;52.986;6.980;2023-04-01T03:18:29;9.80;99.90
52709;DHT22;38606;52.986;6.980;2023-04-01T03:20:55;10.00;99.90
52709;DHT22;38606;52.986;6.980;2023-04-01T03:23:21;9.90;99.90
52709;DHT22;38606;52.986;6.980;2023-04-01T03:25:47;10.20;99.90
52709;DHT22;38606;52.986;6.980;2023-04-01T03:28:13;10.00;99.90
52709;DHT22;38606;52.986;6.980;2023-04-01T03:30:39;10.00;99.90
52709;DHT22;38606;52.986;6.980;2023-04-01T03:33:05;10.20;99.90
52709;DHT22;38606;52.986;6.980;2023-04-01T03:35:32;9.90;99.90
52709;DHT22;38606;52.986;6.980;2023-04-01T03:37:57;10.20;99.90
52709;DHT22;38606;52.986;6.980;2023-04-01T03:40:23;9.90;99.90
52709;DHT22;38606;52.986;6.980;2023-04-01T03:42:49;10.20;99.90
52709;DHT22;38606;52.986;6.980;2023-04-01T03:45:15;10.00;99.90
52709;DHT22;38606;52.986;6.980;2023-04-01T03:47:41;10.20;99.90
52709;DHT22;38606;52.986;6.980;2023-04-01T03:50:07;10.00;99.90
52709;DHT22;38606;52.986;6.980;2023-04-01T03:52:34;10.10;99.90
52709;DHT22;38606;52.986;6.980;2023-04-01T03:55:00;10.00;99.90
52709;DHT22;38606;52.986;6.980;2023-04-01T03:57:26;9.90;99.90
52709;DHT22;38606;52.986;6.980;2023-04-01T03:59:52;10.00;99.90
52709;DHT22;38606;52.986;6.980;2023-04-01T04:02:18;10.10;99.90
52709;DHT22;38606;52.986;6.980;2023-04-01T04:04:44;10.10;99.90
52709;DHT22;38606;52.986;6.980;2023-04-01T04:07:12;10.10;99.90
52709;DHT22;38606;52.986;6.980;2023-04-01T04:09:37;10.00;99.90
52709;DHT22;38606;52.986;6.980;2023-04-01T04:12:03;10.10;99.90
52709;DHT22;38606;52.986;6.980;2023-04-01T04:14:31;9.90;99.90
52709;DHT22;38606;52.986;6.980;2023-04-01T04:16:57;10.10;99.90
52709;DHT22;38606;52.986;6.980;2023-04-01T04:19:22;10.10;99.90
52709;DHT22;38606;52.986;6.980;2023-04-01T04:21:48;9.90;99.90
52709;DHT22;38606;52.986;6.980;2023-04-01T04:24:14;10.10;99.90
52709;DHT22;38606;52.986;6.980;2023-04-01T04:26:40;10.10;99.90
52709;DHT22;38606;52.986;6.980;2023-04-01T04:29:07;10.20;99.90
52709;DHT22;38606;52.986;6.980;2023-04-01T04:31:32;10.00;99.90
52709;DHT22;38606;52.986;6.980;2023-04-01T04:34:00;10.10;99.90
52709;DHT22;38606;52.986;6.980;2023-04-01T04:36:28;10.00;99.90
52709;DHT22;38606;52.986;6.980;2023-04-01T04:38:54;9.90;99.90
52709;DHT22;38606;52.986;6.980;2023-04-01T04:41:20;9.90;99.90
52709;DHT22;38606;52.986;6.980;2023-04-01T04:43:56;9.80;99.90
52709;DHT22;38606;52.986;6.980;2023-04-01T04:46:24;9.90;99.90
52709;DHT22;38606;52.986;6.980;2023-04-01T04:48:50;10.10;99.90
52709;DHT22;38606;52.986;6.980;2023-04-01T04:51:17;9.90;99.90
52709;DHT22;38606;52.986;6.980;2023-04-01T04:53:44;9.80;99.90
52709;DHT22;38606;52.986;6.980;2023-04-01T04:56:10;9.60;99.90
52709;DHT22;38606;52.986;6.980;2023-04-01T04:58:36;9.50;99.90
52709;DHT22;38606;52.986;6.980;2023-04-01T05:01:07;9.90;99.90
52709;DHT22;38606;52.986;6.980;2023-04-01T05:03:33;9.80;99.90
52709;DHT22;38606;52.986;6.980;2023-04-01T05:05:58;9.80;99.90
52709;DHT22;38606;52.986;6.980;2023-04-01T05:08:24;10.00;99.90
52709;DHT22;38606;52.986;6.980;2023-04-01T05:10:50;9.80;99.90
52709;DHT22;38606;52.986;6.980;2023-04-01T05:13:16;9.90;99.90
52709;DHT22;38606;52.986;6.980;2023-04-01T05:15:41;9.80;99.90
52709;DHT22;38606;52.986;6.980;2023-04-01T05:18:07;10.00;99.90
52709;DHT22;38606;52.986;6.980;2023-04-01T05:20:33;10.60;99.90
52709;DHT22;38606;52.986;6.980;2023-04-01T05:22:59;10.10;99.90
52709;DHT22;38606;52.986;6.980;2023-04-01T05:25:25;9.70;99.90
52709;DHT22;38606;52.986;6.980;2023-04-01T05:27:51;9.80;99.90
52709;DHT22;38606;52.986;6.980;2023-04-01T05:30:17;9.90;99.90
52709;DHT22;38606;52.986;6.980;2023-04-01T05:32:43;8.20;99.90
52709;DHT22;38606;52.986;6.980;2023-04-01T05:35:09;9.90;99.90
52709;DHT22;38606;52.986;6.980;2023-04-01T05:37:35;9.70;99.90
52709;DHT22;38606;52.986;6.980;2023-04-01T05:40:02;9.90;99.90
52709;DHT22;38606;52.986;6.980;2023-04-01T05:42:28;9.60;99.90
52709;DHT22;38606;52.986;6.980;2023-04-01T05:44:54;9.80;99.90
52709;DHT22;38606;52.986;6.980;2023-04-01T05:47:21;9.70;99.90
52709;DHT22;38606;52.986;6.980;2023-04-01T05:49:47;9.70;99.90
52709;DHT22;38606;52.986;6.980;2023-04-01T05:52:13;9.70;99.90
52709;DHT22;38606;52.986;6.980;2023-04-01T05:54:39;9.80;99.90
52709;DHT22;38606;52.986;6.980;2023-04-01T05:57:05;9.90;99.90
52709;DHT22;38606;52.986;6.980;2023-04-01T05:59:30;9.90;99.90
52709;DHT22;38606;52.986;6.980;2023-04-01T06:02:00;10.10;99.90
52709;DHT22;38606;52.986;6.980;2023-04-01T06:04:28;10.00;99.90
52709;DHT22;38606;52.986;6.980;2023-04-01T06:06:58;10.00;99.90
52709;DHT22;38606;52.986;6.980;2023-04-01T06:09:28;9.80;99.90
52709;DHT22;38606;52.986;6.980;2023-04-01T06:15:08;9.80;99.90
52709;DHT22;38606;52.986;6.980;2023-04-01T06:23:26;9.90;99.90
52709;DHT22;38606;52.986;6.980;2023-04-01T06:26:08;9.70;99.90
52709;DHT22;38606;52.986;6.980;2023-04-01T06:50:48;10.50;99.90
52709;DHT22;38606;52.986;6.980;2023-04-01T06:56:12;10.40;99.90
52709;DHT22;38606;52.986;6.980;2023-04-01T07:01:31;10.60;99.90
52709;DHT22;38606;52.986;6.980;2023-04-01T07:09:41;10.70;99.90
52709;DHT22;38606;52.986;6.980;2023-04-01T07:12:37;10.70;99.90
52709;DHT22;38606;52.986;6.980;2023-04-01T07:15:21;10.70;99.90
52709;DHT22;38606;52.986;6.980;2023-04-01T07:17:58;10.60;99.90
52709;DHT22;38606;52.986;6.980;2023-04-01T07:20:30;10.70;99.90
52709;DHT22;38606;52.986;6.980;2023-04-01T07:22:59;10.80;99.90
52709;DHT22;38606;52.986;6.980;2023-04-01T07:25:30;11.00;99.90
52709;DHT22;38606;52.986;6.980;2023-04-01T07:28:02;10.80;99.90
52709;DHT22;38606;52.986;6.980;2023-04-01T07:30:39;10.90;99.90
52709;DHT22;38606;52.986;6.980;2023-04-01T07:33:19;10.80;99.90
52709;DHT22;38606;52.986;6.980;2023-04-01T07:38:59;11.00;99.90
52709;DHT22;38606;52.986;6.980;2023-04-01T07:41:42;11.10;99.90
52709;DHT22;38606;52.986;6.980;2023-04-01T07:44:41;11.10;99.90
52709;DHT22;38606;52.986;6.980;2023-04-01T07:50:08;11.00;99.90
52709;DHT22;38606;52.986;6.980;2023-04-01T08:06:37;11.10;99.90
52709;DHT22;38606;52.986;6.980;2023-04-01T08:14:32;11.30;99.90
52709;DHT22;38606;52.986;6.980;2023-04-01T08:17:16;11.10;99.90
52709;DHT22;38606;52.986;6.980;2023-04-01T08:24:56;11.50;99.90
52709;DHT22;38606;52.986;6.980;2023-04-01T08:27:37;11.10;99.90
52709;DHT22;38606;52.986;6.980;2023-04-01T08:30:27;11.40;99.90
52709;DHT22;38606;52.986;6.980;2023-04-01T08:52:35;10.80;99.90
52709;DHT22;38606;52.986;6.980;2023-04-01T08:55:40;11.80;99.90
52709;DHT22;38606;52.986;6.980;2023-04-01T08:58:29;11.70;99.90
52709;DHT22;38606;52.986;6.980;2023-04-01T09:20:46;11.90;99.90
52709;DHT22;38606;52.986;6.980;2023-04-01T09:23:26;11.70;99.90
52709;DHT22;38606;52.986;6.980;2023-04-01T09:26:08;11.90;99.90
52709;DHT22;38606;52.986;6.980;2023-04-01T09:45:09;12.10;99.90
52709;DHT22;38606;52.986;6.980;2023-04-01T09:50:52;12.00;99.90
52709;DHT22;38606;52.986;6.980;2023-04-01T10:28:23;12.10;99.90
52709;DHT22;38606;52.986;6.980;2023-04-01T10:31:52;11.70;99.90
52709;DHT22;38606;52.986;6.980;2023-04-01T10:36:51;11.60;99.90
52709;DHT22;38606;52.986;6.980;2023-04-01T11:02:14;11.00;99.90
52709;DHT22;38606;52.986;6.980;2023-04-01T11:07:59;11.00;99.90
52709;DHT22;38606;52.986;6.980;2023-04-01T11:33:40;10.50;99.90
52709;DHT22;38606;52.986;6.980;2023-04-01T11:44:19;10.60;99.90
52709;DHT22;38606;52.986;6.980;2023-04-01T11:47:29;10.50;99.90
52709;DHT22;38606;52.986;6.980;2023-04-01T11:55:58;10.60;99.90
52709;DHT22;38606;52.986;6.980;2023-04-01T11:59:03;10.70;99.90
52709;DHT22;38606;52.986;6.980;2023-04-01T12:04:32;10.60;99.90
52709;DHT22;38606;52.986;6.980;2023-04-01T12:07:03;10.70;99.90
52709;DHT22;38606;52.986;6.980;2023-04-01T12:12:28;10.50;99.90
52709;DHT22;38606;52.986;6.980;2023-04-01T12:15:05;10.80;99.90
52709;DHT22;38606;52.986;6.980;2023-04-01T12:20:33;10.70;99.90
52709;DHT22;38606;52.986;6.980;2023-04-01T12:26:06;10.40;99.90
52709;DHT22;38606;52.986;6.980;2023-04-01T12:31:29;10.30;99.90
52709;DHT22;38606;52.986;6.980;2023-04-01T12:45:00;10.30;99.90
52709;DHT22;38606;52.986;6.980;2023-04-01T13:23:28;9.70;99.90
52709;DHT22;38606;52.986;6.980;2023-04-01T13:26:02;9.90;99.90
52709;DHT22;38606;52.986;6.980;2023-04-01T13:28:36;9.90;99.90
52709;DHT22;38606;52.986;6.980;2023-04-01T13:33:50;9.50;99.90
52709;DHT22;38606;52.986;6.980;2023-04-01T13:36:41;9.70;99.90
52709;DHT22;38606;52.986;6.980;2023-04-01T13:39:41;9.60;99.90
52709;DHT22;38606;52.986;6.980;2023-04-01T13:45:19;9.40;99.90
52709;DHT22;38606;52.986;6.980;2023-04-01T13:51:02;9.50;99.90
52709;DHT22;38606;52.986;6.980;2023-04-01T14:01:47;9.40;99.90
52709;DHT22;38606;52.986;6.980;2023-04-01T14:07:29;9.70;99.90
52709;DHT22;38606;52.986;6.980;2023-04-01T14:10:07;9.40;99.90
52709;DHT22;38606;52.986;6.980;2023-04-01T14:12:48;9.60;99.90
52709;DHT22;38606;52.986;6.980;2023-04-01T14:17:56;10.30;99.90
52709;DHT22;38606;52.986;6.980;2023-04-01T14:21:30;9.60;99.90
52709;DHT22;38606;52.986;6.980;2023-04-01T14:37:57;9.40;99.90
52709;DHT22;38606;52.986;6.980;2023-04-01T14:48:38;9.70;99.90
52709;DHT22;38606;52.986;6.980;2023-04-01T14:51:23;9.50;99.90
52709;DHT22;38606;52.986;6.980;2023-04-01T14:56:40;9.40;99.90
52709;DHT22;38606;52.986;6.980;2023-04-01T14:59:30;9.50;99.90
52709;DHT22;38606;52.986;6.980;2023-04-01T15:22:12;9.30;99.90
52709;DHT22;38606;52.986;6.980;2023-04-01T15:36:07;8.00;99.90
52709;DHT22;38606;52.986;6.980;2023-04-01T15:47:01;9.30;99.90
52709;DHT22;38606;52.986;6.980;2023-04-01T15:49:50;9.20;99.90
52709;DHT22;38606;52.986;6.980;2023-04-01T15:52:43;9.40;99.90
52709;DHT22;38606;52.986;6.980;2023-04-01T15:55:25;8.70;99.90
52709;DHT22;38606;52.986;6.980;2023-04-01T16:01:07;8.80;99.90
52709;DHT22;38606;52.986;6.980;2023-04-01T16:03:40;8.80;99.90
52709;DHT22;38606;52.986;6.980;2023-04-01T16:06:14;8.80;99.90
52709;DHT22;38606;52.986;6.980;2023-04-01T16:09:06;8.80;99.90
52709;DHT22;38606;52.986;6.980;2023-04-01T16:11:53;8.80;99.90
52709;DHT22;38606;52.986;6.980;2023-04-01T16:15:04;8.70;99.90
52709;DHT22;38606;52.986;6.980;2023-04-01T16:17:57;8.90;99.90
52709;DHT22;38606;52.986;6.980;2023-04-01T16:20:52;8.70;99.90
52709;DHT22;38606;52.986;6.980;2023-04-01T16:23:49;8.60;99.90
52709;DHT22;38606;52.986;6.980;2023-04-01T16:26:34;8.70;99.90
52709;DHT22;38606;52.986;6.980;2023-04-01T16:29:24;8.50;99.90
52709;DHT22;38606;52.986;6.980;2023-04-01T16:31:59;8.60;99.90
52709;DHT22;38606;52.986;6.980;2023-04-01T16:34:44;8.30;99.90
52709;DHT22;38606;52.986;6.980;2023-04-01T16:37:20;8.30;99.90
52709;DHT22;38606;52.986;6.980;2023-04-01T16:48:13;8.50;99.90
52709;DHT22;38606;52.986;6.980;2023-04-01T16:50:48;8.10;99.90
52709;DHT22;38606;52.986;6.980;2023-04-01T16:58:23;8.10;99.90
52709;DHT22;38606;52.986;6.980;2023-04-01T17:00:55;8.10;99.90
52709;DHT22;38606;52.986;6.980;2023-04-01T17:03:30;8.00;99.90
52709;DHT22;38606;52.986;6.980;2023-04-01T17:11:56;7.90;99.90
52709;DHT22;38606;52.986;6.980;2023-04-01T17:28:03;8.20;99.90
52709;DHT22;38606;52.986;6.980;2023-04-01T17:30:49;7.60;99.90
52709;DHT22;38606;52.986;6.980;2023-04-01T17:42:15;7.40;99.90
52709;DHT22;38606;52.986;6.980;2023-04-01T17:47:49;7.30;99.90
52709;DHT22;38606;52.986;6.980;2023-04-01T17:53:17;7.30;99.90
52709;DHT22;38606;52.986;6.980;2023-04-01T18:01:24;7.00;99.90
52709;DHT22;38606;52.986;6.980;2023-04-01T18:04:24;7.20;99.90
52709;DHT22;38606;52.986;6.980;2023-04-01T18:12:29;7.20;99.90
52709;DHT22;38606;52.986;6.980;2023-04-01T18:18:24;6.90;99.90
52709;DHT22;38606;52.986;6.980;2023-04-01T18:23:51;7.00;99.90
52709;DHT22;38606;52.986;6.980;2023-04-01T18:26:28;7.00;99.90
52709;DHT22;38606;52.986;6.980;2023-04-01T18:35:01;6.90;99.90
52709;DHT22;38606;52.986;6.980;2023-04-01T18:40:34;6.90;99.90
52709;DHT22;38606;52.986;6.980;2023-04-01T18:43:33;6.80;99.90
52709;DHT22;38606;52.986;6.980;2023-04-01T18:52:24;6.80;99.90
52709;DHT22;38606;52.986;6.980;2023-04-01T18:57:46;6.70;99.90
52709;DHT22;38606;52.986;6.980;2023-04-01T19:03:43;6.60;99.90
52709;DHT22;38606;52.986;6.980;2023-04-01T19:06:20;6.40;99.90
52709;DHT22;38606;52.986;6.980;2023-04-01T19:08:47;6.60;99.90
52709;DHT22;38606;52.986;6.980;2023-04-01T19:14:26;6.60;99.90
52709;DHT22;38606;52.986;6.980;2023-04-01T19:17:07;6.60;99.90
52709;DHT22;38606;52.986;6.980;2023-04-01T19:27:39;6.60;99.90
52709;DHT22;38606;52.986;6.980;2023-04-01T19:35:50;6.40;99.90
52709;DHT22;38606;52.986;6.980;2023-04-01T19:40:56;6.60;99.90
52709;DHT22;38606;52.986;6.980;2023-04-01T19:43:44;6.40;99.90
52709;DHT22;38606;52.986;6.980;2023-04-01T19:46:36;6.40;99.90
52709;DHT22;38606;52.986;6.980;2023-04-01T20:00:24;6.30;99.90
52709;DHT22;38606;52.986;6.980;2023-04-01T20:03:00;6.30;99.90
52709;DHT22;38606;52.986;6.980;2023-04-01T20:08:10;6.20;99.90
52709;DHT22;38606;52.986;6.980;2023-04-01T20:10:40;6.30;99.90
52709;DHT22;38606;52.986;6.980;2023-04-01T20:13:19;6.10;99.90
52709;DHT22;38606;52.986;6.980;2023-04-01T20:16:04;6.20;99.90
52709;DHT22;38606;52.986;6.980;2023-04-01T20:18:57;6.30;99.90
52709;DHT22;38606;52.986;6.980;2023-04-01T20:21:43;4.40;99.90
52709;DHT22;38606;52.986;6.980;2023-04-01T20:24:19;6.30;99.90
52709;DHT22;38606;52.986;6.980;2023-04-01T20:27:03;6.20;99.90
52709;DHT22;38606;52.986;6.980;2023-04-01T20:40:37;6.20;99.90
52709;DHT22;38606;52.986;6.980;2023-04-01T20:46:23;6.00;99.90
52709;DHT22;38606;52.986;6.980;2023-04-01T20:51:34;6.10;99.90
52709;DHT22;38606;52.986;6.980;2023-04-01T21:19:03;5.80;99.90
52709;DHT22;38606;52.986;6.980;2023-04-01T21:29:53;5.80;99.90
52709;DHT22;38606;52.986;6.980;2023-04-01T21:41:01;5.60;99.90
52709;DHT22;38606;52.986;6.980;2023-04-01T21:43:33;5.90;99.90
52709;DHT22;38606;52.986;6.980;2023-04-01T21:49:24;5.70;99.90
52709;DHT22;38606;52.986;6.980;2023-04-01T22:11:04;5.40;99.90
52709;DHT22;38606;52.986;6.980;2023-04-01T22:13:51;5.40;99.90
52709;DHT22;38606;52.986;6.980;2023-04-01T22:19:30;5.60;99.90
52709;DHT22;38606;52.986;6.980;2023-04-01T22:28:09;5.50;99.90
52709;DHT22;38606;52.986;6.980;2023-04-01T22:30:59;5.50;99.90
52709;DHT22;38606;52.986;6.980;2023-04-01T22:43:43;5.10;99.90
52709;DHT22;38606;52.986;6.980;2023-04-01T22:54:45;5.20;99.90
52709;DHT22;38606;52.986;6.980;2023-04-01T22:57:36;5.10;99.90
52709;DHT22;38606;52.986;6.980;2023-04-01T23:05:54;5.10;99.90
52709;DHT22;38606;52.986;6.980;2023-04-01T23:11:26;5.00;99.90
52709;DHT22;38606;52.986;6.980;2023-04-01T23:25:05;4.90;99.90
52709;DHT22;38606;52.986;6.980;2023-04-01T23:27:45;5.10;99.90
52709;DHT22;38606;52.986;6.980;2023-04-01T23:33:21;4.80;99.90
52709;DHT22;38606;52.986;6.980;2023-04-01T23:38:41;4.80;99.90
52709;DHT22;38606;52.986;6.980;2023-04-01T23:41:27;4.70;99.90
52709;DHT22;38606;52.986;6.980;2023-04-01T23:46:28;4.80;99.90
52709;DHT22;38606;52.986;6.980;2023-04-01T23:48:55;4.80;99.90
52709;DHT22;38606;52.986;6.980;2023-04-01T23:51:29;5.90;99.90
52709;DHT22;38606;52.986;6.980;2023-04-01T23:54:29;4.60;99.90
52709;DHT22;38606;52.986;6.980;2023-04-01T23:56:55;4.90;99.90
52709;DHT22;38606;52.986;6.980;2023-04-01T23:59:30;4.80;99.90
